Time;durP1;ratioP1;P1;durP2;ratioP2;P2;SDS_P1;SDS_P2;PMS_P1;PMS_P2;Temp;Humidity;BMP_temperature;BMP_pressure;BME280_temperature;BME280_humidity;BME280_pressure;Samples;Min_cycle;Max_cycle;Signal;HPM_P1;HPM_P2
2022/03/26 00:00:46;;;;;;;17.70;12.68;;;20.70;32.90;;;;;;4979641;28;20035;-75
2022/03/26 00:03:13;;;;;;;16.42;12.77;;;20.70;33.00;;;;;;4947213;28;20394;-75
2022/03/26 00:05:40;;;;;;;14.73;12.25;;;20.70;33.00;;;;;;4980435;28;20026;-75
2022/03/26 00:08:06;;;;;;;17.25;12.32;;;20.70;33.00;;;;;;4957336;28;20027;-76
2022/03/26 00:10:33;;;;;;;17.67;13.27;;;20.70;33.10;;;;;;4981699;28;20026;-75
2022/03/26 00:13:00;;;;;;;16.30;12.43;;;20.60;33.10;;;;;;4982862;28;20022;-74
2022/03/26 00:15:26;;;;;;;16.73;12.00;;;20.70;33.10;;;;;;4983850;28;20076;-74
2022/03/26 00:17:51;;;;;;;17.13;12.68;;;20.70;33.20;;;;;;4967154;28;20019;-76
2022/03/26 00:20:18;;;;;;;18.58;12.43;;;20.60;33.20;;;;;;4965058;28;20441;-76
2022/03/26 00:22:44;;;;;;;16.08;12.57;;;20.60;33.20;;;;;;4981083;28;20039;-76
2022/03/26 00:25:13;;;;;;;17.25;11.93;;;20.70;33.20;;;;;;4980361;28;20019;-79
2022/03/26 00:27:39;;;;;;;18.15;12.55;;;20.70;33.30;;;;;;4980183;28;20015;-76
2022/03/26 00:30:05;;;;;;;17.60;12.15;;;20.60;33.20;;;;;;4965234;28;20019;-76
2022/03/26 00:32:31;;;;;;;19.80;12.48;;;20.60;33.30;;;;;;4966347;28;20022;-75
2022/03/26 00:34:57;;;;;;;18.13;12.98;;;20.60;33.30;;;;;;4950070;28;20049;-75
2022/03/26 00:37:24;;;;;;;16.15;11.82;;;20.60;33.30;;;;;;4982253;28;20438;-75
2022/03/26 00:39:52;;;;;;;18.75;12.90;;;20.60;33.30;;;;;;4963757;28;20382;-79
2022/03/26 00:42:18;;;;;;;16.63;12.20;;;20.60;33.40;;;;;;4980134;28;20486;-76
2022/03/26 00:44:46;;;;;;;18.05;12.82;;;20.60;33.40;;;;;;4979674;28;20153;-77
2022/03/26 00:47:12;;;;;;;15.80;12.00;;;20.60;33.40;;;;;;4963814;28;20015;-76
2022/03/26 00:49:38;;;;;;;14.88;12.18;;;20.60;33.40;;;;;;4963830;28;20158;-74
2022/03/26 00:52:05;;;;;;;17.15;11.93;;;20.50;33.40;;;;;;4980451;28;20019;-80
2022/03/26 00:54:32;;;;;;;15.95;12.30;;;20.60;33.50;;;;;;4962919;28;20027;-78
2022/03/26 00:57:00;;;;;;;16.30;11.95;;;20.60;33.50;;;;;;4979487;28;20029;-75
2022/03/26 00:59:26;;;;;;;15.70;12.07;;;20.50;33.40;;;;;;4964040;28;20017;-77
2022/03/26 01:01:55;;;;;;;16.45;11.80;;;20.50;33.50;;;;;;4965966;28;20031;-75
2022/03/26 01:04:22;;;;;;;16.67;11.82;;;20.50;33.50;;;;;;4964826;28;20007;-75
2022/03/26 01:06:49;;;;;;;15.23;11.55;;;20.50;33.50;;;;;;4999905;28;20014;-75
2022/03/26 01:09:15;;;;;;;16.20;11.25;;;20.50;33.50;;;;;;5022405;28;20025;-75
2022/03/26 01:11:41;;;;;;;17.88;11.50;;;20.60;33.50;;;;;;5022531;28;20070;-77
2022/03/26 01:14:07;;;;;;;17.00;11.40;;;20.50;33.50;;;;;;5038866;28;20033;-75
2022/03/26 01:16:35;;;;;;;14.57;11.80;;;20.50;33.50;;;;;;5022115;28;20014;-76
2022/03/26 01:19:02;;;;;;;15.85;11.25;;;20.50;33.40;;;;;;5022403;28;20029;-76
2022/03/26 01:21:28;;;;;;;14.25;11.13;;;20.50;33.50;;;;;;5038618;28;20033;-78
2022/03/26 01:23:55;;;;;;;15.57;11.30;;;20.50;33.50;;;;;;5005349;28;20077;-75
2022/03/26 01:26:22;;;;;;;15.43;11.60;;;20.50;33.50;;;;;;5038513;28;20074;-76
2022/03/26 01:28:48;;;;;;;16.52;11.32;;;20.50;33.50;;;;;;5005816;28;20033;-75
2022/03/26 01:31:19;;;;;;;16.25;11.10;;;20.50;33.50;;;;;;5005769;28;20041;-74
2022/03/26 01:33:46;;;;;;;12.73;10.73;;;20.40;33.40;;;;;;5022656;28;20029;-74
2022/03/26 01:36:12;;;;;;;14.93;11.35;;;20.50;33.50;;;;;;5022010;28;20061;-77
2022/03/26 01:38:38;;;;;;;14.27;10.90;;;20.40;33.50;;;;;;5021589;28;20030;-76
2022/03/26 01:41:04;;;;;;;14.05;11.27;;;20.50;33.50;;;;;;5005481;28;20559;-75
2022/03/26 01:43:31;;;;;;;14.63;10.52;;;20.40;33.50;;;;;;5038104;28;20009;-78
2022/03/26 01:45:58;;;;;;;15.77;10.85;;;20.50;33.50;;;;;;5038090;28;20062;-75
2022/03/26 01:48:24;;;;;;;14.50;11.10;;;20.50;33.60;;;;;;5021785;28;20117;-75
2022/03/26 01:50:52;;;;;;;13.30;10.65;;;20.40;33.50;;;;;;5021927;28;20010;-75
2022/03/26 01:53:18;;;;;;;15.00;10.48;;;20.40;33.50;;;;;;5021363;28;20037;-76
2022/03/26 01:55:45;;;;;;;14.63;10.70;;;20.50;33.50;;;;;;5037973;28;19998;-77
2022/03/26 01:58:11;;;;;;;13.10;10.57;;;20.50;33.50;;;;;;5021411;28;20025;-75
2022/03/26 02:00:37;;;;;;;13.45;10.50;;;20.40;33.50;;;;;;5038191;28;20078;-76
2022/03/26 02:03:04;;;;;;;13.95;10.65;;;20.40;33.40;;;;;;5005125;28;20010;-78
2022/03/26 02:05:30;;;;;;;16.38;10.85;;;20.50;33.50;;;;;;5021190;28;20010;-79
2022/03/26 02:07:56;;;;;;;14.10;10.63;;;20.40;33.50;;;;;;5004523;28;20075;-75
2022/03/26 02:10:23;;;;;;;14.18;10.13;;;20.40;33.50;;;;;;5021037;28;20042;-77
2022/03/26 02:12:49;;;;;;;13.55;10.18;;;20.40;33.50;;;;;;5020891;28;20014;-76
2022/03/26 02:15:16;;;;;;;15.20;10.43;;;20.40;33.50;;;;;;5021077;28;20018;-75
2022/03/26 02:17:42;;;;;;;15.10;10.90;;;20.40;33.50;;;;;;5021236;28;20026;-75
2022/03/26 02:20:10;;;;;;;14.18;10.68;;;20.40;33.50;;;;;;5038132;28;20016;-75
2022/03/26 02:22:38;;;;;;;12.82;10.57;;;20.40;33.50;;;;;;5021981;28;20030;-75
2022/03/26 02:25:05;;;;;;;12.30;9.63;;;20.40;33.50;;;;;;5005181;28;20010;-76
2022/03/26 02:27:31;;;;;;;13.77;10.20;;;20.40;33.50;;;;;;5020749;28;20014;-76
2022/03/26 02:29:58;;;;;;;12.77;9.73;;;20.30;33.40;;;;;;5020701;28;20101;-76
2022/03/26 02:32:25;;;;;;;13.00;10.30;;;20.40;33.50;;;;;;5020802;28;20044;-76
2022/03/26 02:34:51;;;;;;;13.32;10.35;;;20.30;33.50;;;;;;5003872;28;20025;-75
2022/03/26 02:37:18;;;;;;;16.25;11.30;;;20.30;33.50;;;;;;5021165;28;20026;-75
2022/03/26 02:39:44;;;;;;;14.88;10.55;;;20.30;33.50;;;;;;5021297;28;20078;-77
2022/03/26 02:42:10;;;;;;;15.68;10.48;;;20.30;33.50;;;;;;5019616;28;20048;-76
2022/03/26 02:44:36;;;;;;;12.25;9.63;;;20.30;33.50;;;;;;5019087;28;20029;-75
2022/03/26 02:47:02;;;;;;;11.45;9.85;;;20.30;33.50;;;;;;5019422;28;20038;-75
2022/03/26 02:49:29;;;;;;;13.63;9.68;;;20.30;33.50;;;;;;5020372;28;20073;-76
2022/03/26 02:51:56;;;;;;;15.13;9.88;;;20.30;33.50;;;;;;5037632;28;20014;-75
2022/03/26 02:54:23;;;;;;;13.32;9.70;;;20.30;33.50;;;;;;5021638;28;20018;-77
2022/03/26 02:56:49;;;;;;;13.07;10.13;;;20.30;33.60;;;;;;5038368;28;20006;-74
2022/03/26 02:59:16;;;;;;;13.23;9.80;;;20.30;33.60;;;;;;5021512;28;20049;-76
2022/03/26 03:01:42;;;;;;;13.88;10.43;;;20.30;33.60;;;;;;5021235;28;20030;-76
2022/03/26 03:04:08;;;;;;;13.82;10.32;;;20.30;33.50;;;;;;5020958;28;20014;-77
2022/03/26 03:06:35;;;;;;;14.48;9.95;;;20.30;33.70;;;;;;5020507;28;20001;-74
2022/03/26 03:09:02;;;;;;;12.13;9.48;;;20.30;33.70;;;;;;5020761;28;20013;-75
2022/03/26 03:11:29;;;;;;;12.00;10.07;;;20.30;33.70;;;;;;5037640;28;20050;-75
2022/03/26 03:13:55;;;;;;;12.68;9.80;;;20.30;33.60;;;;;;5003350;28;20010;-75
2022/03/26 03:16:21;;;;;;;13.45;10.00;;;20.30;33.60;;;;;;5007126;28;20101;-76
2022/03/26 03:18:47;;;;;;;13.30;9.90;;;20.30;33.60;;;;;;5007510;28;20037;-75
2022/03/26 03:21:14;;;;;;;13.48;9.85;;;20.20;33.60;;;;;;5010308;28;20057;-76
2022/03/26 03:23:39;;;;;;;14.27;10.50;;;20.20;33.60;;;;;;4996241;28;20034;-75
2022/03/26 03:26:05;;;;;;;12.90;9.85;;;20.20;33.60;;;;;;5015863;28;20053;-75
2022/03/26 03:28:34;;;;;;;13.82;10.20;;;20.20;33.60;;;;;;5014604;28;20018;-75
2022/03/26 03:31:00;;;;;;;14.48;10.05;;;20.20;33.70;;;;;;4997275;28;20026;-74
2022/03/26 03:33:26;;;;;;;13.18;10.30;;;20.20;33.70;;;;;;5028940;28;20022;-75
2022/03/26 03:35:53;;;;;;;11.93;9.57;;;20.20;33.70;;;;;;5007815;28;20033;-74
2022/03/26 03:38:19;;;;;;;14.60;9.60;;;20.20;33.60;;;;;;4990510;28;20064;-75
2022/03/26 03:40:45;;;;;;;13.90;10.20;;;20.20;33.70;;;;;;5008622;28;20048;-74
2022/03/26 03:43:11;;;;;;;11.50;9.57;;;20.20;33.60;;;;;;4992591;28;20010;-75
2022/03/26 03:45:37;;;;;;;13.48;10.02;;;20.20;33.60;;;;;;4993218;28;20488;-74
2022/03/26 03:48:03;;;;;;;13.98;9.43;;;20.20;33.60;;;;;;4995588;28;20010;-75
2022/03/26 03:50:29;;;;;;;14.15;9.80;;;20.20;33.70;;;;;;5013595;28;20029;-75
2022/03/26 03:52:55;;;;;;;13.15;10.00;;;20.20;33.70;;;;;;4995932;28;20022;-74
2022/03/26 03:55:21;;;;;;;13.27;9.50;;;20.10;34.20;;;;;;4993580;28;20014;-75
2022/03/26 03:57:46;;;;;;;13.25;9.90;;;20.20;33.70;;;;;;5010548;28;20018;-75
2022/03/26 04:00:14;;;;;;;13.55;9.32;;;20.20;33.70;;;;;;5008393;28;20028;-75
2022/03/26 04:02:40;;;;;;;12.32;9.70;;;20.10;33.70;;;;;;5008007;28;20008;-74
2022/03/26 04:05:09;;;;;;;18.65;9.60;;;20.20;34.30;;;;;;5008135;28;20014;-75
2022/03/26 04:07:38;;;;;;;11.38;9.18;;;20.20;33.70;;;;;;5004058;28;20092;-74
2022/03/26 04:10:07;;;;;;;15.53;10.57;;;20.10;33.70;;;;;;4988197;28;20044;-75
2022/03/26 04:12:33;;;;;;;13.80;10.20;;;20.10;33.70;;;;;;4973035;28;20371;-76
2022/03/26 04:14:59;;;;;;;13.48;9.60;;;20.10;33.80;;;;;;4988794;28;20026;-74
2022/03/26 04:17:25;;;;;;;11.70;9.60;;;20.10;33.80;;;;;;5006441;28;20007;-78
2022/03/26 04:19:52;;;;;;;15.85;10.20;;;20.10;33.80;;;;;;5004332;28;20022;-75
2022/03/26 04:22:18;;;;;;;12.75;9.10;;;20.10;33.80;;;;;;4988690;28;20038;-76
2022/03/26 04:24:44;;;;;;;13.65;9.88;;;20.10;33.90;;;;;;5005313;28;20107;-75
2022/03/26 04:27:10;;;;;;;13.20;9.77;;;20.00;33.80;;;;;;5005920;28;20049;-75
2022/03/26 04:29:36;;;;;;;12.00;9.68;;;20.10;33.80;;;;;;5004608;28;20087;-75
2022/03/26 04:32:03;;;;;;;16.73;9.75;;;20.10;33.80;;;;;;5004310;28;20022;-75
2022/03/26 04:34:28;;;;;;;12.82;9.35;;;20.00;33.80;;;;;;4986790;28;20113;-75
2022/03/26 04:36:55;;;;;;;12.88;9.35;;;20.10;33.80;;;;;;4986281;28;20050;-75
2022/03/26 04:39:21;;;;;;;15.10;10.20;;;20.10;33.80;;;;;;5002187;28;20038;-74
2022/03/26 04:41:50;;;;;;;14.63;10.25;;;20.10;33.80;;;;;;5002003;28;20489;-75
2022/03/26 04:44:15;;;;;;;12.90;9.50;;;20.00;34.30;;;;;;5002676;28;20041;-75
2022/03/26 04:46:41;;;;;;;13.02;9.35;;;20.00;33.80;;;;;;5001286;28;20470;-75
2022/03/26 04:49:07;;;;;;;11.80;9.57;;;20.00;33.80;;;;;;4984374;28;20041;-75
2022/03/26 04:51:33;;;;;;;14.55;10.32;;;20.00;33.80;;;;;;5003578;28;20027;-77
2022/03/26 04:53:58;;;;;;;14.85;10.20;;;20.00;33.80;;;;;;5004934;28;20465;-74
2022/03/26 04:56:25;;;;;;;13.57;9.30;;;20.00;33.80;;;;;;5003205;28;20029;-79
2022/03/26 04:58:53;;;;;;;14.18;9.65;;;20.00;33.90;;;;;;5002968;28;20018;-74
2022/03/26 05:01:19;;;;;;;10.75;8.70;;;20.00;33.80;;;;;;5001995;28;20026;-75
2022/03/26 05:03:46;;;;;;;14.20;10.40;;;20.00;33.80;;;;;;5001006;28;20014;-74
2022/03/26 05:06:13;;;;;;;12.98;9.25;;;20.00;33.80;;;;;;4999971;28;20085;-75
2022/03/26 05:08:39;;;;;;;12.77;9.77;;;20.00;33.80;;;;;;4998625;28;20042;-74
2022/03/26 05:11:05;;;;;;;13.77;10.15;;;20.00;33.90;;;;;;4999714;28;20021;-76
2022/03/26 05:13:32;;;;;;;12.45;9.63;;;20.00;33.90;;;;;;5000979;28;20033;-74
2022/03/26 05:15:58;;;;;;;13.98;10.05;;;19.90;33.90;;;;;;4984618;28;20402;-74
2022/03/26 05:18:25;;;;;;;12.05;8.63;;;19.90;34.00;;;;;;5000900;28;20019;-75
2022/03/26 05:20:50;;;;;;;12.93;9.48;;;19.90;33.90;;;;;;4998536;28;20030;-74
2022/03/26 05:23:17;;;;;;;12.95;10.05;;;19.90;33.90;;;;;;4983764;28;20117;-76
2022/03/26 05:25:43;;;;;;;14.43;9.55;;;19.90;33.90;;;;;;5000134;28;20026;-75
2022/03/26 05:28:09;;;;;;;12.77;9.55;;;19.90;34.50;;;;;;4999587;28;20042;-75
2022/03/26 05:30:37;;;;;;;13.00;10.25;;;19.90;34.00;;;;;;5000686;28;20101;-76
2022/03/26 05:33:03;;;;;;;12.90;9.52;;;19.90;33.90;;;;;;5000354;28;20497;-76
2022/03/26 05:35:29;;;;;;;11.65;8.95;;;19.90;34.50;;;;;;4999356;28;20026;-76
2022/03/26 05:37:56;;;;;;;14.45;9.63;;;19.90;33.90;;;;;;5000576;28;20026;-75
2022/03/26 05:40:22;;;;;;;13.85;9.23;;;19.90;33.90;;;;;;5000386;28;20018;-78
2022/03/26 05:42:48;;;;;;;12.05;9.18;;;19.90;34.00;;;;;;5000797;28;20046;-75
2022/03/26 05:45:14;;;;;;;15.45;10.18;;;19.90;34.00;;;;;;5001130;28;20020;-78
2022/03/26 05:47:41;;;;;;;13.82;10.05;;;19.90;34.00;;;;;;4984169;28;20381;-75
2022/03/26 05:50:08;;;;;;;14.88;9.80;;;19.90;34.10;;;;;;4985414;28;20018;-75
2022/03/26 05:52:34;;;;;;;13.68;9.00;;;19.90;34.10;;;;;;5001962;28;20029;-75
2022/03/26 05:55:00;;;;;;;14.48;9.73;;;19.90;34.00;;;;;;5001873;28;20022;-75
2022/03/26 05:57:27;;;;;;;14.68;9.40;;;19.90;34.10;;;;;;4984642;28;20524;-75
2022/03/26 05:59:53;;;;;;;11.88;9.48;;;19.90;34.10;;;;;;4983788;28;20033;-74
2022/03/26 06:02:21;;;;;;;12.82;9.73;;;19.90;34.10;;;;;;4999334;28;20074;-74
2022/03/26 06:04:47;;;;;;;11.55;9.63;;;19.90;34.10;;;;;;4998955;28;20058;-75
2022/03/26 06:07:16;;;;;;;15.60;9.75;;;20.00;34.00;;;;;;4999935;28;20038;-75
2022/03/26 06:09:41;;;;;;;15.05;10.02;;;20.00;33.80;;;;;;5001584;28;20018;-75
2022/03/26 06:12:08;;;;;;;12.95;9.50;;;20.10;33.70;;;;;;4983221;28;20146;-75
2022/03/26 06:14:34;;;;;;;13.55;9.68;;;20.20;33.50;;;;;;5000803;28;20058;-75
2022/03/26 06:17:01;;;;;;;11.82;9.18;;;20.30;33.40;;;;;;5001120;28;20026;-75
2022/03/26 06:19:27;;;;;;;12.38;9.40;;;20.30;33.30;;;;;;5003163;28;20022;-76
2022/03/26 06:21:53;;;;;;;12.15;8.90;;;20.20;33.20;;;;;;5005169;28;20027;-76
2022/03/26 06:24:20;;;;;;;15.25;9.88;;;20.30;33.30;;;;;;4986603;28;20042;-76
2022/03/26 06:26:48;;;;;;;16.35;9.40;;;20.30;33.30;;;;;;5002109;28;20018;-75
2022/03/26 06:29:14;;;;;;;14.10;9.15;;;20.30;33.40;;;;;;5001601;28;20042;-75
2022/03/26 06:31:40;;;;;;;14.68;9.95;;;20.30;33.30;;;;;;4986607;28;20014;-75
2022/03/26 06:34:06;;;;;;;12.57;9.48;;;20.30;33.20;;;;;;5003178;28;20030;-75
2022/03/26 06:36:34;;;;;;;12.20;9.68;;;20.30;33.10;;;;;;5005002;28;20015;-75
2022/03/26 06:39:03;;;;;;;13.68;9.45;;;20.40;33.10;;;;;;5002059;28;20087;-75
2022/03/26 06:41:29;;;;;;;15.18;9.50;;;20.40;33.00;;;;;;5002869;28;20069;-78
2022/03/26 06:43:56;;;;;;;11.93;8.63;;;20.40;33.00;;;;;;5003229;28;20021;-76
2022/03/26 06:46:23;;;;;;;12.65;9.30;;;20.40;32.90;;;;;;5002880;28;20010;-77
2022/03/26 06:48:49;;;;;;;15.90;9.85;;;20.50;33.00;;;;;;5002007;28;20038;-76
2022/03/26 06:51:16;;;;;;;11.98;9.30;;;20.50;33.00;;;;;;5001013;28;20045;-76
2022/03/26 06:53:42;;;;;;;13.30;9.60;;;20.50;33.00;;;;;;5000107;28;20046;-76
2022/03/26 06:56:08;;;;;;;12.80;9.43;;;20.50;33.00;;;;;;4999348;28;20022;-75
2022/03/26 06:58:34;;;;;;;10.93;8.80;;;20.60;33.00;;;;;;5002512;28;20041;-76
2022/03/26 07:01:01;;;;;;;12.63;9.23;;;20.60;33.00;;;;;;5004049;28;20477;-76
2022/03/26 07:03:27;;;;;;;13.10;9.18;;;20.60;32.90;;;;;;5004829;28;20010;-75
2022/03/26 07:05:54;;;;;;;12.40;9.05;;;20.70;32.80;;;;;;5005975;28;20014;-76
2022/03/26 07:08:20;;;;;;;12.57;9.32;;;20.80;32.60;;;;;;5006163;28;20070;-76
2022/03/26 07:10:47;;;;;;;14.60;9.40;;;20.80;32.50;;;;;;5006980;28;20097;-77
2022/03/26 07:13:14;;;;;;;14.77;9.57;;;20.90;32.40;;;;;;5007738;28;20076;-76
2022/03/26 07:15:43;;;;;;;13.63;9.10;;;21.00;32.30;;;;;;5008505;28;20023;-77
2022/03/26 07:18:09;;;;;;;12.32;9.35;;;21.10;32.10;;;;;;5006237;28;20022;-75
2022/03/26 07:20:35;;;;;;;13.00;9.32;;;21.20;32.00;;;;;;4987527;28;20033;-75
2022/03/26 07:23:02;;;;;;;15.07;8.57;;;21.20;31.80;;;;;;5001948;28;20015;-75
2022/03/26 07:25:30;;;;;;;12.30;9.05;;;21.40;31.90;;;;;;5002781;28;20018;-75
2022/03/26 07:27:56;;;;;;;10.88;8.93;;;21.40;31.70;;;;;;5004573;28;20014;-76
2022/03/26 07:30:22;;;;;;;12.02;8.88;;;21.50;31.40;;;;;;5003495;28;20019;-75
2022/03/26 07:32:56;;;;;;;11.48;8.70;;;21.60;31.30;;;;;;5004711;28;20034;-75
2022/03/26 07:35:23;;;;;;;12.13;8.75;;;21.70;31.20;;;;;;4988363;28;20041;-75
2022/03/26 07:37:49;;;;;;;11.63;8.27;;;21.80;31.10;;;;;;5004882;28;20023;-77
2022/03/26 07:40:15;;;;;;;12.13;8.98;;;21.90;30.90;;;;;;5005083;28;20050;-77
2022/03/26 07:42:40;;;;;;;11.23;8.63;;;22.00;30.70;;;;;;5004496;28;20026;-76
2022/03/26 07:45:07;;;;;;;12.57;9.18;;;22.00;30.60;;;;;;5004686;28;20019;-76
2022/03/26 07:47:37;;;;;;;12.40;8.85;;;22.10;30.60;;;;;;5003672;28;20018;-75
2022/03/26 07:50:04;;;;;;;11.93;8.88;;;22.20;30.40;;;;;;4986116;28;20027;-76
2022/03/26 07:52:30;;;;;;;10.77;8.32;;;22.30;30.20;;;;;;4984982;28;20109;-74
2022/03/26 07:54:56;;;;;;;13.27;8.45;;;22.30;30.20;;;;;;5002981;28;20056;-77
2022/03/26 07:57:23;;;;;;;10.77;7.97;;;22.40;30.20;;;;;;5001174;28;20031;-79
2022/03/26 07:59:49;;;;;;;11.05;8.30;;;22.40;30.10;;;;;;5001200;28;20050;-78
2022/03/26 08:02:15;;;;;;;9.20;7.68;;;22.40;30.10;;;;;;5001882;28;20101;-75
2022/03/26 08:04:41;;;;;;;9.55;7.25;;;22.40;30.10;;;;;;5000406;28;20042;-75
2022/03/26 08:07:07;;;;;;;12.60;7.93;;;22.50;30.10;;;;;;4984510;28;20038;-74
2022/03/26 08:09:33;;;;;;;10.85;7.68;;;22.50;30.00;;;;;;5000583;28;20034;-75
2022/03/26 08:11:59;;;;;;;13.00;8.00;;;22.50;30.00;;;;;;5000462;28;20029;-74
2022/03/26 08:14:26;;;;;;;11.65;8.00;;;22.60;30.00;;;;;;5001344;28;20040;-75
2022/03/26 08:16:52;;;;;;;10.18;7.60;;;22.60;30.00;;;;;;5001414;28;20097;-74
2022/03/26 08:19:18;;;;;;;10.38;7.05;;;22.70;29.90;;;;;;5000872;28;20026;-74
2022/03/26 08:21:45;;;;;;;10.82;7.78;;;22.70;29.90;;;;;;5000307;28;20507;-76
2022/03/26 08:24:12;;;;;;;8.88;7.20;;;22.80;29.80;;;;;;4983530;28;20014;-74
2022/03/26 08:26:38;;;;;;;12.50;8.30;;;22.90;29.80;;;;;;5001203;28;20022;-74
2022/03/26 08:29:04;;;;;;;11.85;8.05;;;22.90;29.60;;;;;;5001446;28;20019;-74
2022/03/26 08:31:31;;;;;;;9.55;7.97;;;23.00;29.60;;;;;;5001639;28;20026;-78
2022/03/26 08:33:57;;;;;;;11.13;7.55;;;23.00;29.60;;;;;;5001048;28;20037;-76
2022/03/26 08:36:24;;;;;;;9.88;7.28;;;23.10;29.50;;;;;;5005863;28;20038;-76
2022/03/26 08:38:50;;;;;;;13.00;7.80;;;23.10;29.40;;;;;;4988663;28;20049;-75
2022/03/26 08:41:17;;;;;;;12.65;8.15;;;23.20;29.50;;;;;;4989184;28;20018;-78
2022/03/26 08:43:43;;;;;;;10.55;7.90;;;23.10;29.40;;;;;;5004394;28;20109;-78
2022/03/26 08:46:09;;;;;;;9.73;7.75;;;23.20;29.40;;;;;;4987397;28;20042;-75
2022/03/26 08:48:35;;;;;;;10.27;7.45;;;23.30;29.40;;;;;;5002513;28;20073;-75
2022/03/26 08:51:02;;;;;;;11.00;7.68;;;23.30;29.40;;;;;;5000983;28;20022;-75
2022/03/26 08:53:28;;;;;;;9.73;7.43;;;23.30;29.30;;;;;;4985577;28;20045;-75
2022/03/26 08:55:54;;;;;;;8.98;7.65;;;23.30;29.30;;;;;;5001939;28;20022;-75
2022/03/26 08:58:20;;;;;;;9.77;7.35;;;23.40;29.30;;;;;;5001000;28;20014;-75
2022/03/26 09:00:51;;;;;;;10.43;7.72;;;23.40;29.30;;;;;;5001109;28;20038;-75
2022/03/26 09:03:19;;;;;;;10.45;7.63;;;23.40;29.20;;;;;;5001575;28;20129;-75
2022/03/26 09:05:46;;;;;;;12.25;8.20;;;23.50;29.20;;;;;;4985795;28;20097;-75
2022/03/26 09:08:12;;;;;;;9.43;7.50;;;23.50;29.20;;;;;;4983935;28;20049;-75
2022/03/26 09:10:38;;;;;;;10.57;7.38;;;23.50;29.10;;;;;;4998756;28;20023;-75
2022/03/26 09:13:04;;;;;;;11.82;7.88;;;23.50;29.10;;;;;;4999693;28;20089;-75
2022/03/26 09:15:30;;;;;;;10.40;7.72;;;23.60;29.10;;;;;;4983563;28;20014;-75
2022/03/26 09:17:56;;;;;;;12.98;8.02;;;23.60;29.10;;;;;;4984312;28;20169;-75
2022/03/26 09:20:22;;;;;;;10.73;7.45;;;23.70;29.00;;;;;;4984178;28;20100;-75
2022/03/26 09:22:48;;;;;;;11.93;8.30;;;23.70;29.00;;;;;;4998516;28;20042;-76
2022/03/26 09:25:17;;;;;;;11.48;8.00;;;23.80;28.90;;;;;;4999908;28;20038;-75
2022/03/26 09:27:43;;;;;;;10.18;7.75;;;23.80;28.90;;;;;;5000363;28;20014;-76
2022/03/26 09:30:11;;;;;;;9.88;7.60;;;23.80;28.90;;;;;;4984011;28;20017;-76
2022/03/26 09:32:36;;;;;;;10.70;7.40;;;23.80;28.90;;;;;;4984389;28;20030;-78
2022/03/26 09:35:03;;;;;;;12.15;8.20;;;23.80;28.90;;;;;;5001557;28;20022;-75
2022/03/26 09:37:29;;;;;;;11.25;8.05;;;23.80;28.90;;;;;;5000009;28;20018;-75
2022/03/26 09:39:55;;;;;;;13.85;8.05;;;23.90;28.80;;;;;;4999055;28;20477;-77
2022/03/26 09:42:24;;;;;;;10.93;7.32;;;23.90;28.80;;;;;;4998901;28;20038;-75
2022/03/26 09:44:50;;;;;;;10.85;7.85;;;23.90;28.80;;;;;;5000100;28;20019;-75
2022/03/26 09:47:16;;;;;;;11.15;7.63;;;23.90;28.80;;;;;;4984575;28;20029;-76
2022/03/26 09:49:44;;;;;;;9.77;7.88;;;24.00;28.70;;;;;;4983719;28;20022;-75
2022/03/26 09:52:13;;;;;;;9.65;7.93;;;24.00;28.70;;;;;;4999603;28;20015;-76
2022/03/26 09:54:39;;;;;;;9.80;7.57;;;24.00;28.70;;;;;;4984203;28;20033;-75
2022/03/26 09:57:07;;;;;;;10.70;7.88;;;24.10;28.70;;;;;;5000197;28;20080;-74
2022/03/26 09:59:33;;;;;;;13.93;8.85;;;24.10;28.60;;;;;;4984277;28;20113;-76
2022/03/26 10:01:59;;;;;;;11.20;8.23;;;24.10;28.50;;;;;;4982953;28;20473;-76
2022/03/26 10:04:26;;;;;;;12.73;8.02;;;24.10;28.50;;;;;;4998700;28;20022;-76
2022/03/26 10:06:57;;;;;;;13.43;8.05;;;24.10;28.60;;;;;;5000996;28;20022;-76
2022/03/26 10:09:40;;;;;;;10.85;7.88;;;24.10;28.60;;;;;;5003000;28;20013;-76
2022/03/26 10:12:13;;;;;;;13.23;8.85;;;24.10;28.60;;;;;;5003148;28;20129;-79
2022/03/26 10:14:59;;;;;;;11.60;8.38;;;24.10;28.60;;;;;;5003463;28;20028;-76
2022/03/26 10:17:28;;;;;;;10.70;7.75;;;24.10;28.50;;;;;;5004475;28;20018;-76
2022/03/26 10:19:58;;;;;;;;;;;24.00;28.60;;;;;;5005212;28;20033;-77
2022/03/26 10:22:35;;;;;;;15.48;8.88;;;24.00;28.60;;;;;;5004545;28;20361;-76
2022/03/26 10:25:03;;;;;;;11.48;8.20;;;24.10;28.50;;;;;;4989975;28;20010;-77
2022/03/26 10:27:36;;;;;;;11.60;7.80;;;24.10;28.50;;;;;;4988372;28;20425;-76
2022/03/26 10:30:02;;;;;;;12.75;8.35;;;24.10;28.60;;;;;;4986531;28;20033;-76
2022/03/26 10:32:50;;;;;;;13.10;8.80;;;24.10;28.50;;;;;;4984935;28;20022;-76
2022/03/26 10:35:37;;;;;;;10.82;8.60;;;24.10;28.50;;;;;;5004398;28;20037;-77
2022/03/26 10:38:03;;;;;;;13.35;8.65;;;24.10;28.50;;;;;;4997061;28;20022;-76
2022/03/26 10:40:31;;;;;;;12.95;8.80;;;24.00;28.40;;;;;;5000537;28;20060;-76
2022/03/26 10:42:59;;;;;;;14.02;9.73;;;24.00;28.40;;;;;;5001840;28;20048;-76
2022/03/26 10:45:26;;;;;;;13.73;8.77;;;24.00;28.40;;;;;;5002303;28;20444;-80
2022/03/26 10:47:57;;;;;;;13.27;8.85;;;24.00;28.40;;;;;;5001772;28;20002;-75
2022/03/26 10:50:27;;;;;;;11.55;8.52;;;24.00;28.40;;;;;;5002204;28;20520;-77
2022/03/26 10:52:55;;;;;;;15.63;9.50;;;24.00;28.40;;;;;;5001028;28;20101;-76
2022/03/26 10:55:22;;;;;;;13.90;9.70;;;24.00;28.30;;;;;;5001026;28;20104;-76
2022/03/26 10:57:48;;;;;;;13.18;9.57;;;24.00;28.40;;;;;;5018545;28;20042;-76
2022/03/26 11:00:14;;;;;;;12.25;8.70;;;24.00;28.30;;;;;;5002368;28;20022;-76
2022/03/26 11:02:43;;;;;;;14.07;9.00;;;24.00;28.30;;;;;;5002460;28;20018;-76
2022/03/26 11:05:10;;;;;;;13.93;9.70;;;23.90;28.40;;;;;;4986172;28;20469;-76
2022/03/26 11:07:37;;;;;;;12.63;8.68;;;23.90;28.30;;;;;;4998828;28;20038;-76
2022/03/26 11:10:10;;;;;;;12.25;8.80;;;23.90;28.40;;;;;;4997819;28;20085;-76
2022/03/26 11:12:46;;;;;;;13.00;8.95;;;23.80;28.40;;;;;;4982945;28;20042;-76
2022/03/26 11:15:47;;;;;;;12.63;9.95;;;23.80;28.40;;;;;;4999349;28;20026;-80
2022/03/26 11:18:29;;;;;;;14.13;9.90;;;23.80;28.40;;;;;;4996647;28;20505;-75
2022/03/26 11:21:13;;;;;;;11.18;8.13;;;23.80;28.40;;;;;;4980928;28;20031;-76
2022/03/26 11:24:16;;;;;;;16.92;9.18;;;23.70;28.50;;;;;;4983297;28;20021;-75
2022/03/26 11:26:59;;;;;;;14.70;9.10;;;23.70;28.50;;;;;;4999970;28;20021;-75
2022/03/26 11:29:41;;;;;;;14.55;9.20;;;23.70;28.50;;;;;;4998827;28;20022;-75
2022/03/26 11:32:18;;;;;;;13.35;9.38;;;23.60;28.50;;;;;;4997511;28;20029;-75
2022/03/26 11:34:43;;;;;;;12.73;9.43;;;23.60;28.60;;;;;;4997369;28;20077;-75
2022/03/26 11:37:13;;;;;;;14.60;9.35;;;23.50;28.60;;;;;;4996125;28;20038;-75
2022/03/26 11:39:49;;;;;;;12.87;9.50;;;23.50;28.60;;;;;;4996553;28;20010;-74
2022/03/26 11:42:15;;;;;;;13.73;8.90;;;23.50;28.60;;;;;;4997737;28;20560;-74
2022/03/26 11:44:45;;;;;;;15.38;10.05;;;23.40;28.60;;;;;;4998862;28;20018;-77
2022/03/26 11:52:40;;;;;;;13.80;9.15;;;23.30;28.60;;;;;;5003343;28;20030;-75
2022/03/26 11:55:12;;;;;;;14.55;9.18;;;23.30;28.60;;;;;;4986846;28;20026;-75
2022/03/26 11:57:39;;;;;;;15.70;10.05;;;23.30;28.70;;;;;;5002876;28;20078;-75
2022/03/26 12:00:18;;;;;;;14.93;9.02;;;23.20;28.60;;;;;;5001826;28;20026;-75
2022/03/26 12:02:51;;;;;;;14.25;8.98;;;23.20;28.60;;;;;;5001038;28;20049;-75
2022/03/26 12:08:18;;;;;;;12.38;8.43;;;23.10;28.60;;;;;;4999316;28;20121;-75
2022/03/26 12:10:44;;;;;;;11.77;8.18;;;23.10;28.60;;;;;;5000499;28;20469;-76
2022/03/26 12:13:18;;;;;;;12.68;8.30;;;23.10;28.70;;;;;;5000947;28;20018;-76
2022/03/26 12:16:02;;;;;;;13.32;8.07;;;23.00;28.70;;;;;;5002475;28;20466;-75
2022/03/26 12:18:46;;;;;;;12.10;8.18;;;23.00;28.70;;;;;;5002036;28;20010;-73
2022/03/26 12:21:20;;;;;;;11.25;7.93;;;22.90;28.70;;;;;;5002198;28;20026;-75
2022/03/26 12:23:58;;;;;;;10.77;7.35;;;22.90;28.70;;;;;;5002714;28;20014;-76
2022/03/26 12:26:25;;;;;;;12.18;7.70;;;22.90;28.80;;;;;;5002589;28;20015;-74
2022/03/26 12:28:52;;;;;;;14.32;7.80;;;22.80;28.70;;;;;;5003140;28;20021;-73
2022/03/26 12:31:19;;;;;;;12.30;7.30;;;22.80;28.80;;;;;;5001376;28;20519;-74
2022/03/26 12:33:50;;;;;;;11.90;7.47;;;22.80;28.80;;;;;;4983607;28;20025;-74
2022/03/26 12:36:17;;;;;;;10.80;6.93;;;22.70;28.80;;;;;;4999106;28;20069;-73
2022/03/26 12:38:54;;;;;;;12.05;7.93;;;22.70;28.80;;;;;;5000079;28;20018;-74
2022/03/26 12:41:20;;;;;;;10.32;6.78;;;22.70;28.80;;;;;;4983328;28;20034;-74
2022/03/26 12:44:14;;;;;;;13.00;6.93;;;22.60;28.80;;;;;;4999215;28;20050;-74
2022/03/26 12:46:41;;;;;;;12.10;7.03;;;22.60;28.80;;;;;;4998464;28;20552;-74